Time;durP1;ratioP1;P1;durP2;ratioP2;P2;SDS_P1;SDS_P2;PMS_P1;PMS_P2;Temp;Humidity;BMP_temperature;BMP_pressure;BME280_temperature;BME280_humidity;BME280_pressure;Samples;Min_cycle;Max_cycle;Signal;HPM_P1;HPM_P2
2024/04/19 00:02:10;;;;;;;;;;;10.40;62.70;;;;;;5245902;26;85238;-40
2024/04/19 00:04:36;;;;;;;;;;;10.40;62.60;;;;;;5259987;26;85289;-40
2024/04/19 00:07:02;;;;;;;;;;;10.30;62.70;;;;;;5247641;26;85798;-39
2024/04/19 00:09:27;;;;;;;;;;;10.30;62.80;;;;;;5260795;26;84607;-40
2024/04/19 00:11:53;;;;;;;;;;;10.30;62.80;;;;;;5251125;26;85579;-40
2024/04/19 00:14:18;;;;;;;;;;;10.30;62.70;;;;;;5253057;26;85360;-39
2024/04/19 00:16:44;;;;;;;;;;;10.30;62.80;;;;;;5241922;26;86866;-39
2024/04/19 00:19:09;;;;;;;;;;;10.30;62.70;;;;;;5265145;26;85886;-39
2024/04/19 00:21:35;;;;;;;;;;;10.30;62.60;;;;;;5242307;26;86289;-39
2024/04/19 00:24:01;;;;;;;;;;;10.30;62.50;;;;;;5250132;26;86395;-39
2024/04/19 00:26:26;;;;;;;;;;;10.30;62.70;;;;;;5246190;26;86973;-40
2024/04/19 00:28:52;;;;;;;;;;;10.30;62.60;;;;;;5261930;26;85603;-40
2024/04/19 00:31:17;;;;;;;;;;;10.20;62.60;;;;;;5244117;26;86398;-40
2024/04/19 00:33:43;;;;;;;;;;;10.20;62.70;;;;;;5248456;26;85308;-40
2024/04/19 00:36:09;;;;;;;;;;;10.20;62.70;;;;;;5245314;26;85229;-40
2024/04/19 00:38:34;;;;;;;;;;;10.20;62.60;;;;;;5240110;26;85819;-40
2024/04/19 00:41:00;;;;;;;;;;;10.20;62.60;;;;;;5252488;26;86315;-39
2024/04/19 00:43:25;;;;;;;;;;;10.20;62.70;;;;;;5260419;26;86715;-40
2024/04/19 00:45:51;;;;;;;;;;;10.20;62.70;;;;;;5243152;26;85675;-40
2024/04/19 00:48:20;;;;;;;;;;;10.10;62.70;;;;;;5239860;26;85261;-39
2024/04/19 00:50:48;;;;;;;;;;;10.10;62.60;;;;;;5254549;26;86718;-39
2024/04/19 00:53:19;;;;;;;;;;;10.10;62.60;;;;;;5250036;26;85593;-39
2024/04/19 00:55:45;;;;;;;;;;;10.10;62.70;;;;;;5261046;26;85400;-39
2024/04/19 00:58:10;;;;;;;;;;;10.10;62.60;;;;;;5255195;26;85197;-40
2024/04/19 01:00:36;;;;;;;;;;;10.10;62.70;;;;;;5258474;26;85928;-40
2024/04/19 01:03:02;;;;;;;;;;;10.10;62.80;;;;;;5245360;26;85282;-40
2024/04/19 01:05:27;;;;;;;;;;;10.10;62.70;;;;;;5262248;26;87042;-41
2024/04/19 01:07:53;;;;;;;;;;;10.10;62.70;;;;;;5241866;26;85538;-40
2024/04/19 01:10:19;;;;;;;;;;;10.00;62.70;;;;;;5253966;26;85546;-40
2024/04/19 01:12:44;;;;;;;;;;;10.00;62.60;;;;;;5236080;26;85736;-41
2024/04/19 01:15:20;;;;;;;;;;;10.00;62.70;;;;;;5261469;26;85271;-40
2024/04/19 01:17:46;;;;;;;;;;;10.00;62.70;;;;;;5255051;26;85761;-41
2024/04/19 01:20:12;;;;;;;;;;;10.00;62.80;;;;;;5260998;26;85328;-41
2024/04/19 01:22:38;;;;;;;;;;;10.00;62.70;;;;;;5238698;26;86463;-41
2024/04/19 01:25:04;;;;;;;;;;;10.00;62.60;;;;;;5261460;26;85721;-41
2024/04/19 01:27:30;;;;;;;;;;;10.00;62.60;;;;;;5244647;26;85285;-41
2024/04/19 01:29:56;;;;;;;;;;;9.90;62.70;;;;;;5243653;26;86341;-41
2024/04/19 01:32:21;;;;;;;;;;;9.90;62.80;;;;;;5248050;26;88638;-40
2024/04/19 01:34:47;;;;;;;;;;;9.90;62.60;;;;;;5253914;26;85392;-41
2024/04/19 01:37:12;;;;;;;;;;;9.90;63.00;;;;;;5247823;26;85258;-41
2024/04/19 01:39:38;;;;;;;;;;;9.80;62.90;;;;;;5244618;26;87204;-41
2024/04/19 01:42:04;;;;;;;;;;;9.80;62.90;;;;;;5250510;26;86532;-41
2024/04/19 01:44:29;;;;;;;;;;;9.80;62.70;;;;;;5237887;26;87382;-40
2024/04/19 01:46:55;;;;;;;;;;;9.80;63.10;;;;;;5250632;26;84576;-40
2024/04/19 01:49:21;;;;;;;;;;;9.80;62.60;;;;;;5245172;26;85874;-41
2024/04/19 01:51:46;;;;;;;;;;;9.80;62.60;;;;;;5259943;26;85833;-40
2024/04/19 01:54:15;;;;;;;;;;;9.80;62.70;;;;;;5242932;26;86172;-41
2024/04/19 01:56:41;;;;;;;;;;;9.80;62.70;;;;;;5260064;26;86596;-41
2024/04/19 01:59:06;;;;;;;;;;;9.80;62.70;;;;;;5244272;26;85901;-40
2024/04/19 02:01:32;;;;;;;;;;;9.80;62.70;;;;;;5262107;26;85709;-40
2024/04/19 02:03:58;;;;;;;;;;;9.70;62.70;;;;;;5235097;26;86858;-41
2024/04/19 02:06:23;;;;;;;;;;;9.70;62.80;;;;;;5264877;26;85179;-40
2024/04/19 02:08:49;;;;;;;;;;;9.70;62.70;;;;;;5241095;26;85352;-41
2024/04/19 02:11:14;;;;;;;;;;;9.70;62.70;;;;;;5265877;26;85294;-41
2024/04/19 02:13:40;;;;;;;;;;;9.70;62.80;;;;;;5236503;26;85332;-41
2024/04/19 02:16:06;;;;;;;;;;;9.70;62.70;;;;;;5262022;26;85268;-41
2024/04/19 02:18:31;;;;;;;;;;;9.70;62.70;;;;;;5235471;26;87862;-40
2024/04/19 02:20:57;;;;;;;;;;;9.70;62.70;;;;;;5257481;26;85417;-40
2024/04/19 02:23:49;;;;;;;;;;;9.70;62.70;;;;;;5245077;26;87113;-42
2024/04/19 02:26:14;;;;;;;;;;;9.60;62.70;;;;;;5256209;26;85245;-40
2024/04/19 02:31:24;;;;;;;;;;;9.60;62.60;;;;;;5248887;26;85616;-40
2024/04/19 02:33:50;;;;;;;;;;;9.60;62.60;;;;;;5243650;26;85729;-40
2024/04/19 02:36:15;;;;;;;;;;;9.60;62.70;;;;;;5252384;26;86461;-41
2024/04/19 02:38:41;;;;;;;;;;;9.60;62.70;;;;;;5250955;26;86827;-40
2024/04/19 02:41:07;;;;;;;;;;;9.60;62.70;;;;;;5243679;26;86048;-40
2024/04/19 02:43:33;;;;;;;;;;;9.50;62.70;;;;;;5262102;26;86556;-40
2024/04/19 02:46:05;;;;;;;;;;;9.50;62.70;;;;;;5251955;26;85375;-40
2024/04/19 02:48:31;;;;;;;;;;;9.50;62.70;;;;;;5266276;26;86628;-40
2024/04/19 02:50:57;;;;;;;;;;;9.50;62.70;;;;;;5238978;26;87447;-40
2024/04/19 02:53:22;;;;;;;;;;;9.50;62.70;;;;;;5261038;26;85296;-41
2024/04/19 02:55:48;;;;;;;;;;;9.50;62.80;;;;;;5238877;26;85296;-40
2024/04/19 02:58:14;;;;;;;;;;;9.50;62.70;;;;;;5256227;26;85727;-41
2024/04/19 03:00:39;;;;;;;;;;;9.50;62.70;;;;;;5238739;26;84646;-40
2024/04/19 03:03:05;;;;;;;;;;;9.50;62.70;;;;;;5262162;26;85276;-40
2024/04/19 03:05:31;;;;;;;;;;;9.50;62.70;;;;;;5250649;26;86940;-40
2024/04/19 03:07:56;;;;;;;;;;;9.50;62.70;;;;;;5254098;26;87529;-40
2024/04/19 03:10:22;;;;;;;;;;;9.40;62.70;;;;;;5251341;26;85848;-40
2024/04/19 03:12:47;;;;;;;;;;;9.40;62.70;;;;;;5264942;26;85213;-41
2024/04/19 03:15:13;;;;;;;;;;;9.40;62.70;;;;;;5251645;26;86380;-40
2024/04/19 03:17:39;;;;;;;;;;;9.40;62.70;;;;;;5256788;26;87076;-40
2024/04/19 03:20:04;;;;;;;;;;;9.40;62.70;;;;;;5251355;26;85376;-40
2024/04/19 03:22:30;;;;;;;;;;;9.40;62.80;;;;;;5246599;26;85308;-41
2024/04/19 03:24:55;;;;;;;;;;;9.40;62.60;;;;;;5248364;26;86561;-40
2024/04/19 03:27:21;;;;;;;;;;;9.30;62.60;;;;;;5257963;26;86226;-40
2024/04/19 03:29:52;;;;;;;;;;;9.30;62.70;;;;;;5250665;26;87074;-41
2024/04/19 03:32:17;;;;;;;;;;;9.30;62.70;;;;;;5243911;26;86239;-40
2024/04/19 03:34:43;;;;;;;;;;;9.30;62.70;;;;;;5264231;26;87724;-40
2024/04/19 03:37:08;;;;;;;;;;;9.30;62.70;;;;;;5251169;26;85956;-40
2024/04/19 03:39:34;;;;;;;;;;;9.30;62.80;;;;;;5248699;26;86217;-40
2024/04/19 03:41:59;;;;;;;;;;;9.30;62.60;;;;;;5246564;26;85272;-40
2024/04/19 03:47:09;;;;;;;;;;;9.30;62.90;;;;;;5245044;26;85430;-40
2024/04/19 03:49:34;;;;;;;;;;;9.30;62.70;;;;;;5254094;26;85309;-40
2024/04/19 03:52:00;;;;;;;;;;;9.20;62.80;;;;;;5236960;26;85425;-40
2024/04/19 03:54:25;;;;;;;;;;;9.20;62.80;;;;;;5253320;26;85224;-40
2024/04/19 03:56:51;;;;;;;;;;;9.20;62.90;;;;;;5233878;26;88028;-40
2024/04/19 03:59:16;;;;;;;;;;;9.20;62.90;;;;;;5254542;26;85414;-40
2024/04/19 04:01:42;;;;;;;;;;;9.20;62.90;;;;;;5242537;26;86967;-40
2024/04/19 04:04:07;;;;;;;;;;;9.20;62.90;;;;;;5249789;26;85822;-40
2024/04/19 04:06:33;;;;;;;;;;;9.10;63.00;;;;;;5250695;26;86204;-40
2024/04/19 04:08:59;;;;;;;;;;;9.10;62.90;;;;;;5251729;26;86603;-39
2024/04/19 04:11:24;;;;;;;;;;;9.10;63.00;;;;;;5250308;26;85471;-40
2024/04/19 04:13:50;;;;;;;;;;;9.10;62.90;;;;;;5246841;26;85498;-40
2024/04/19 04:16:15;;;;;;;;;;;9.10;63.00;;;;;;5251336;26;85631;-40
2024/04/19 04:18:41;;;;;;;;;;;9.10;63.00;;;;;;5256476;26;85343;-40
2024/04/19 04:21:06;;;;;;;;;;;9.10;63.10;;;;;;5255369;26;86400;-40
2024/04/19 04:23:33;;;;;;;;;;;9.10;63.00;;;;;;5248762;26;85749;-40
2024/04/19 04:25:58;;;;;;;;;;;9.10;63.00;;;;;;5249209;26;85664;-40
2024/04/19 04:28:24;;;;;;;;;;;9.00;63.00;;;;;;5243315;26;86647;-40
2024/04/19 04:30:50;;;;;;;;;;;9.00;63.10;;;;;;5257489;26;85716;-40
2024/04/19 04:33:15;;;;;;;;;;;9.00;63.20;;;;;;5241299;26;85309;-40
2024/04/19 04:35:41;;;;;;;;;;;9.00;63.10;;;;;;5259910;26;86078;-40
2024/04/19 04:38:07;;;;;;;;;;;9.00;63.10;;;;;;5239841;26;85517;-40
2024/04/19 04:40:33;;;;;;;;;;;9.00;63.10;;;;;;5252475;26;85187;-40
2024/04/19 04:42:59;;;;;;;;;;;9.00;63.30;;;;;;5235209;26;87049;-40
2024/04/19 04:45:24;;;;;;;;;;;9.00;63.20;;;;;;5262745;26;86233;-41
2024/04/19 04:47:50;;;;;;;;;;;8.90;63.20;;;;;;5241631;26;87586;-40
2024/04/19 04:50:16;;;;;;;;;;;8.90;63.20;;;;;;5248838;26;85820;-41
2024/04/19 04:52:41;;;;;;;;;;;9.00;63.30;;;;;;5240293;26;85290;-40
2024/04/19 04:55:07;;;;;;;;;;;8.90;63.30;;;;;;5248529;26;87218;-40
2024/04/19 04:57:32;;;;;;;;;;;8.90;63.30;;;;;;5242746;26;85373;-39
2024/04/19 04:59:58;;;;;;;;;;;8.90;63.20;;;;;;5263416;26;86623;-40
2024/04/19 05:02:24;;;;;;;;;;;8.90;63.30;;;;;;5248847;26;86180;-40
2024/04/19 05:04:49;;;;;;;;;;;8.90;63.30;;;;;;5254896;26;85358;-40
2024/04/19 05:07:15;;;;;;;;;;;8.90;63.10;;;;;;5243839;26;86534;-40
2024/04/19 05:09:40;;;;;;;;;;;8.90;63.30;;;;;;5258606;26;86836;-40
2024/04/19 05:12:07;;;;;;;;;;;8.90;63.20;;;;;;5246647;26;85691;-40
2024/04/19 05:14:33;;;;;;;;;;;8.80;63.30;;;;;;5264197;26;86574;-40
2024/04/19 05:16:58;;;;;;;;;;;8.80;63.30;;;;;;5245832;26;85588;-39
2024/04/19 05:19:24;;;;;;;;;;;8.80;63.20;;;;;;5245269;26;86629;-40
2024/04/19 05:21:50;;;;;;;;;;;8.90;63.30;;;;;;5258261;26;87063;-40
2024/04/19 05:24:15;;;;;;;;;;;8.80;63.40;;;;;;5248858;26;85353;-40
2024/04/19 05:26:41;;;;;;;;;;;8.80;63.30;;;;;;5248479;26;85510;-40
2024/04/19 05:29:06;;;;;;;;;;;8.80;63.40;;;;;;5252641;26;86978;-40
2024/04/19 05:31:32;;;;;;;;;;;8.80;63.50;;;;;;5254291;26;85615;-40
2024/04/19 05:33:57;;;;;;;;;;;8.80;63.50;;;;;;5243231;26;86563;-40
2024/04/19 05:36:23;;;;;;;;;;;8.70;63.50;;;;;;5264256;26;87945;-40
2024/04/19 05:38:48;;;;;;;;;;;8.80;63.60;;;;;;5248324;26;86620;-40
2024/04/19 05:41:14;;;;;;;;;;;8.70;63.60;;;;;;5259248;26;86188;-40
2024/04/19 05:43:40;;;;;;;;;;;8.70;63.40;;;;;;5242883;26;85304;-40
2024/04/19 05:46:05;;;;;;;;;;;8.70;64.10;;;;;;5260905;26;86693;-40
2024/04/19 05:48:31;;;;;;;;;;;8.70;63.70;;;;;;5250108;26;86924;-39
2024/04/19 05:50:56;;;;;;;;;;;8.70;63.60;;;;;;5259939;26;84693;-40
2024/04/19 05:53:22;;;;;;;;;;;8.70;64.20;;;;;;5243906;26;86256;-40
2024/04/19 05:55:47;;;;;;;;;;;8.70;63.70;;;;;;5254175;26;85241;-40
2024/04/19 05:58:15;;;;;;;;;;;8.70;63.80;;;;;;5243012;26;86609;-40
2024/04/19 06:00:40;;;;;;;;;;;8.60;63.70;;;;;;5248654;26;85781;-40
2024/04/19 06:03:06;;;;;;;;;;;8.60;63.70;;;;;;5245378;26;85352;-40
2024/04/19 06:05:32;;;;;;;;;;;8.70;63.70;;;;;;5248670;26;88233;-39
2024/04/19 06:07:57;;;;;;;;;;;8.60;63.80;;;;;;5248411;26;85714;-40
2024/04/19 06:10:23;;;;;;;;;;;8.60;63.70;;;;;;5249836;26;85390;-40
2024/04/19 06:12:48;;;;;;;;;;;8.60;63.80;;;;;;5277811;26;88120;-40
2024/04/19 06:15:14;;;;;;;;;;;8.60;63.70;;;;;;5254058;26;84992;-40
2024/04/19 06:17:39;;;;;;;;;;;8.60;63.80;;;;;;5252209;26;85603;-40
2024/04/19 06:20:05;;;;;;;;;;;8.60;63.80;;;;;;5256966;26;86738;-40
2024/04/19 06:22:31;;;;;;;;;;;8.70;63.80;;;;;;5250243;26;86276;-40
2024/04/19 06:24:57;;;;;;;;;;;8.70;63.80;;;;;;5254183;26;87176;-40
2024/04/19 06:27:23;;;;;;;;;;;8.70;63.80;;;;;;5246301;26;85853;-40
2024/04/19 06:29:49;;;;;;;;;;;8.70;63.70;;;;;;5243557;26;85896;-40
2024/04/19 06:32:14;;;;;;;;;;;8.70;63.80;;;;;;5253165;26;85557;-40
2024/04/19 06:34:40;;;;;;;;;;;8.70;63.60;;;;;;5237648;26;87002;-40
2024/04/19 06:37:06;;;;;;;;;;;8.70;63.60;;;;;;5249411;26;85261;-40
2024/04/19 06:39:31;;;;;;;;;;;8.70;63.50;;;;;;5243244;26;86663;-40
2024/04/19 06:42:00;;;;;;;;;;;8.80;63.50;;;;;;5250067;26;85273;-40
2024/04/19 06:44:25;;;;;;;;;;;8.80;63.30;;;;;;5245271;26;86640;-41
2024/04/19 06:46:51;;;;;;;;;;;8.80;63.40;;;;;;5252823;26;87883;-41
2024/04/19 06:49:16;;;;;;;;;;;8.80;63.50;;;;;;5236569;26;85371;-40
2024/04/19 06:51:42;;;;;;;;;;;8.80;63.50;;;;;;5260019;26;86567;-40
2024/04/19 06:54:07;;;;;;;;;;;8.80;63.40;;;;;;5243227;26;86242;-40
2024/04/19 06:56:33;;;;;;;;;;;8.80;63.50;;;;;;5246590;26;86022;-40
2024/04/19 06:58:59;;;;;;;;;;;8.80;63.50;;;;;;5244173;26;85469;-41
2024/04/19 07:01:24;;;;;;;;;;;8.80;63.50;;;;;;5259868;26;86672;-40
2024/04/19 07:03:53;;;;;;;;;;;8.80;63.50;;;;;;5246504;26;85302;-40
2024/04/19 07:06:18;;;;;;;;;;;8.80;63.40;;;;;;5249559;26;85859;-40
2024/04/19 07:08:45;;;;;;;;;;;8.80;63.70;;;;;;5249752;26;85192;-40
2024/04/19 07:11:10;;;;;;;;;;;8.80;63.30;;;;;;5248041;26;86188;-40
2024/04/19 07:13:36;;;;;;;;;;;8.80;63.60;;;;;;5247893;26;85717;-41
2024/04/19 07:16:02;;;;;;;;;;;8.70;63.50;;;;;;5254009;26;85354;-40
2024/04/19 07:18:27;;;;;;;;;;;8.70;63.70;;;;;;5257420;26;86625;-42
2024/04/19 07:20:53;;;;;;;;;;;8.70;63.60;;;;;;5241710;26;87142;-40
2024/04/19 07:23:21;;;;;;;;;;;8.80;63.60;;;;;;5249664;26;86115;-41
2024/04/19 07:25:47;;;;;;;;;;;8.70;63.70;;;;;;5234765;26;85612;-41
2024/04/19 07:28:13;;;;;;;;;;;8.70;63.70;;;;;;5254743;26;85211;-40
2024/04/19 07:30:39;;;;;;;;;;;8.80;63.60;;;;;;5251818;26;85269;-40
2024/04/19 07:33:04;;;;;;;;;;;8.70;63.70;;;;;;5255343;26;85717;-40
2024/04/19 07:35:30;;;;;;;;;;;8.70;63.80;;;;;;5240851;26;86931;-40
2024/04/19 07:37:56;;;;;;;;;;;8.70;63.70;;;;;;5257065;26;86225;-41
2024/04/19 07:40:22;;;;;;;;;;;8.70;63.80;;;;;;5242043;26;87210;-40
2024/04/19 07:42:47;;;;;;;;;;;8.70;63.80;;;;;;5246486;26;85694;-40
2024/04/19 07:45:18;;;;;;;;;;;8.70;63.80;;;;;;5248624;26;86038;-40
2024/04/19 07:47:44;;;;;;;;;;;8.70;63.90;;;;;;5248241;26;85759;-41
2024/04/19 07:50:10;;;;;;;;;;;8.70;63.70;;;;;;5238713;26;85277;-41
2024/04/19 07:52:36;;;;;;;;;;;8.70;63.90;;;;;;5255292;26;86387;-40
2024/04/19 07:55:01;;;;;;;;;;;8.70;63.90;;;;;;5249639;26;85130;-40
2024/04/19 07:57:27;;;;;;;;;;;8.70;63.90;;;;;;5255561;26;86401;-41
2024/04/19 07:59:53;;;;;;;;;;;8.70;64.00;;;;;;5237844;26;86640;-41
2024/04/19 08:02:20;;;;;;;;;;;8.70;64.00;;;;;;5252917;26;85847;-41
2024/04/19 08:04:46;;;;;;;;;;;8.70;63.90;;;;;;5242462;26;86745;-40
2024/04/19 08:07:11;;;;;;;;;;;8.70;63.90;;;;;;5265902;26;85243;-40
2024/04/19 08:09:37;;;;;;;;;;;8.80;63.90;;;;;;5254247;26;85291;-40
2024/04/19 08:12:03;;;;;;;;;;;8.70;63.80;;;;;;5245415;26;87371;-40
2024/04/19 08:14:28;;;;;;;;;;;8.70;63.90;;;;;;5253792;26;86925;-40
2024/04/19 08:16:54;;;;;;;;;;;8.80;63.90;;;;;;5257186;26;86968;-40
2024/04/19 08:19:19;;;;;;;;;;;8.70;63.90;;;;;;5249943;26;86121;-40
2024/04/19 08:21:45;;;;;;;;;;;8.70;63.90;;;;;;5249745;26;85266;-40
2024/04/19 08:24:10;;;;;;;;;;;8.80;63.90;;;;;;5245282;26;86201;-40
2024/04/19 08:26:36;;;;;;;;;;;8.80;64.00;;;;;;5248056;26;85592;-40
2024/04/19 08:29:01;;;;;;;;;;;8.80;64.00;;;;;;5251155;26;85488;-40
2024/04/19 08:31:27;;;;;;;;;;;8.80;64.10;;;;;;5239433;26;86993;-41
2024/04/19 08:33:53;;;;;;;;;;;8.80;63.90;;;;;;5255670;26;86165;-42
2024/04/19 08:36:19;;;;;;;;;;;8.80;63.90;;;;;;5237256;26;85415;-40
2024/04/19 08:38:45;;;;;;;;;;;8.80;64.00;;;;;;5253278;26;86855;-40
2024/04/19 08:41:11;;;;;;;;;;;8.90;63.80;;;;;;5236039;26;84700;-40
2024/04/19 08:43:37;;;;;;;;;;;8.90;64.00;;;;;;5257334;26;85951;-40
2024/04/19 08:46:03;;;;;;;;;;;8.80;63.80;;;;;;5266852;26;88647;-40
2024/04/19 08:48:30;;;;;;;;;;;8.80;64.00;;;;;;5260696;26;86454;-40
2024/04/19 08:50:57;;;;;;;;;;;8.80;64.10;;;;;;5235069;26;85238;-40
2024/04/19 08:53:23;;;;;;;;;;;8.90;63.90;;;;;;5257507;26;86217;-40
2024/04/19 08:55:50;;;;;;;;;;;8.80;64.10;;;;;;5246907;26;87142;-40
2024/04/19 08:58:16;;;;;;;;;;;8.90;63.90;;;;;;5251204;26;85779;-40
2024/04/19 09:00:42;;;;;;;;;;;8.90;64.20;;;;;;5254390;26;86047;-40
2024/04/19 09:03:08;;;;;;;;;;;8.90;64.00;;;;;;5257825;26;86438;-40
2024/04/19 09:05:33;;;;;;;;;;;8.90;64.10;;;;;;5241675;26;86411;-40
2024/04/19 09:07:59;;;;;;;;;;;9.00;63.90;;;;;;5261982;26;85593;-40
2024/04/19 09:10:25;;;;;;;;;;;9.00;63.90;;;;;;5243388;26;86112;-41
2024/04/19 09:12:50;;;;;;;;;;;9.00;63.80;;;;;;5238880;26;86192;-41
2024/04/19 09:15:16;;;;;;;;;;;9.00;64.00;;;;;;5247746;26;87252;-41
2024/04/19 09:17:42;;;;;;;;;;;9.00;64.10;;;;;;5243030;26;87028;-40
2024/04/19 09:20:07;;;;;;;;;;;9.00;64.20;;;;;;5248150;26;85329;-40
2024/04/19 09:22:33;;;;;;;;;;;9.00;63.90;;;;;;5250432;26;86084;-40
2024/04/19 09:24:58;;;;;;;;;;;9.00;63.90;;;;;;5251703;26;87231;-41
2024/04/19 09:27:24;;;;;;;;;;;9.00;63.90;;;;;;5234149;26;85175;-41
2024/04/19 09:29:50;;;;;;;;;;;9.00;64.00;;;;;;5260461;26;86524;-40
2024/04/19 09:32:22;;;;;;;;;;;9.00;64.00;;;;;;5249710;26;87016;-40
2024/04/19 09:34:48;;;;;;;;;;;9.00;64.10;;;;;;5254688;26;86545;-40
2024/04/19 09:37:13;;;;;;;;;;;9.00;64.20;;;;;;5245126;26;88097;-40
2024/04/19 09:39:39;;;;;;;;;;;9.00;64.10;;;;;;5257746;26;85353;-40
2024/04/19 09:42:06;;;;;;;;;;;9.00;64.10;;;;;;5238490;26;86411;-40
2024/04/19 09:44:32;;;;;;;;;;;9.10;64.20;;;;;;5255960;26;87495;-40
2024/04/19 09:47:02;;;;;;;;;;;9.10;64.00;;;;;;5245816;26;85465;-41
2024/04/19 09:49:29;;;;;;;;;;;9.10;64.00;;;;;;5260575;26;87272;-40
2024/04/19 09:51:55;;;;;;;;;;;9.10;64.00;;;;;;5238293;26;87188;-41
2024/04/19 09:54:22;;;;;;;;;;;9.20;63.90;;;;;;5252825;26;84716;-41
2024/04/19 09:56:53;;;;;;;;;;;9.20;63.90;;;;;;5241179;26;87167;-40
2024/04/19 09:59:19;;;;;;;;;;;9.20;63.60;;;;;;5258688;26;86439;-41
2024/04/19 10:01:45;;;;;;;;;;;9.20;63.70;;;;;;5246166;26;86529;-41
2024/04/19 10:04:11;;;;;;;;;;;9.20;63.70;;;;;;5250706;26;85707;-41
2024/04/19 10:06:40;;;;;;;;;;;9.20;64.00;;;;;;5244725;26;85809;-40
2024/04/19 10:09:09;;;;;;;;;;;9.20;63.80;;;;;;5252990;26;86901;-40
2024/04/19 10:11:35;;;;;;;;;;;9.20;63.80;;;;;;5251980;26;87044;-40
2024/04/19 10:14:01;;;;;;;;;;;9.20;63.80;;;;;;5245828;26;85292;-40
2024/04/19 10:16:27;;;;;;;;;;;9.20;63.80;;;;;;5249168;26;86495;-41
2024/04/19 10:18:52;;;;;;;;;;;9.20;63.80;;;;;;5243020;26;84646;-40
2024/04/19 10:21:18;;;;;;;;;;;9.30;64.00;;;;;;5253337;26;86235;-41
2024/04/19 10:23:46;;;;;;;;;;;9.30;63.70;;;;;;5244810;26;85936;-40
2024/04/19 10:26:11;;;;;;;;;;;9.30;64.00;;;;;;5253093;26;86218;-40
2024/04/19 10:28:37;;;;;;;;;;;9.30;63.80;;;;;;5249858;26;87550;-41
2024/04/19 10:31:05;;;;;;;;;;;9.30;63.90;;;;;;5253591;26;87223;-40
2024/04/19 10:33:30;;;;;;;;;;;9.40;63.70;;;;;;5239875;26;85333;-40
2024/04/19 10:35:56;;;;;;;;;;;9.40;63.80;;;;;;5257745;26;86334;-40
2024/04/19 10:38:23;;;;;;;;;;;9.30;63.80;;;;;;5251368;26;85309;-40
2024/04/19 10:40:48;;;;;;;;;;;9.40;63.80;;;;;;5255448;26;86130;-39
2024/04/19 10:43:14;;;;;;;;;;;9.30;63.90;;;;;;5232100;26;86492;-41
2024/04/19 10:45:39;;;;;;;;;;;9.40;63.70;;;;;;5258063;26;85252;-40
2024/04/19 10:48:06;;;;;;;;;;;9.40;63.60;;;;;;5244179;26;85232;-41
2024/04/19 10:50:33;;;;;;;;;;;9.40;63.50;;;;;;5247891;26;87754;-45
2024/04/19 10:52:59;;;;;;;;;;;9.50;63.20;;;;;;5241289;26;85277;-37
2024/04/19 10:55:27;;;;;;;;;;;9.40;63.10;;;;;;5250279;26;87425;-43
2024/04/19 10:57:53;;;;;;;;;;;9.40;62.30;;;;;;5243342;26;86845;-42
2024/04/19 11:00:19;;;;;;;;;;;9.30;61.60;;;;;;5252678;26;86627;-42
2024/04/19 11:02:44;;;;;;;;;;;9.30;62.10;;;;;;5251939;26;85964;-42
2024/04/19 11:05:11;;;;;;;;;;;9.30;62.30;;;;;;5254021;26;85647;-41
2024/04/19 11:07:37;;;;;;;;;;;9.40;62.00;;;;;;5256830;26;86574;-41
2024/04/19 11:10:04;;;;;;;;;;;9.50;61.80;;;;;;5244379;26;85995;-41
2024/04/19 11:12:30;;;;;;;;;;;9.60;61.80;;;;;;5245997;26;85660;-41
2024/04/19 11:14:57;;;;;;;;;;;9.60;61.80;;;;;;5248109;26;86701;-41
2024/04/19 11:17:22;;;;;;;;;;;9.60;61.80;;;;;;5254806;26;85894;-41
2024/04/19 11:19:48;;;;;;;;;;;9.60;61.90;;;;;;5260069;26;86125;-42
2024/04/19 11:22:14;;;;;;;;;;;9.60;61.90;;;;;;5259550;26;86955;-41
2024/04/19 11:24:40;;;;;;;;;;;9.60;62.00;;;;;;5248298;26;85313;-42
2024/04/19 11:27:06;;;;;;;;;;;9.70;61.80;;;;;;5262539;26;86495;-41
2024/04/19 11:29:34;;;;;;;;;;;9.70;61.80;;;;;;5252957;26;86065;-41
2024/04/19 11:32:06;;;;;;;;;;;9.70;61.90;;;;;;5259890;26;84524;-41
2024/04/19 11:34:32;;;;;;;;;;;9.70;61.90;;;;;;5240938;26;85918;-41
2024/04/19 11:37:04;;;;;;;;;;;9.70;62.00;;;;;;5248666;26;85196;-42
2024/04/19 11:39:30;;;;;;;;;;;9.70;62.20;;;;;;5248731;26;86467;-42
2024/04/19 11:41:55;;;;;;;;;;;9.80;62.00;;;;;;5267390;26;86459;-42
2024/04/19 11:44:21;;;;;;;;;;;9.80;62.20;;;;;;5244847;26;85763;-42
2024/04/19 11:46:46;;;;;;;;;;;9.80;62.30;;;;;;5260272;26;86821;-42
2024/04/19 11:49:15;;;;;;;;;;;9.80;62.50;;;;;;5243976;26;85859;-42
2024/04/19 11:51:41;;;;;;;;;;;9.80;62.40;;;;;;5241124;26;85376;-42
2024/04/19 11:54:07;;;;;;;;;;;9.80;62.40;;;;;;5243983;26;85272;-41
2024/04/19 11:56:32;;;;;;;;;;;9.80;62.40;;;;;;5258649;26;85477;-41
2024/04/19 11:58:58;;;;;;;;;;;9.80;62.50;;;;;;5255511;26;85961;-41
2024/04/19 12:01:25;;;;;;;;;;;9.80;62.20;;;;;;5243412;26;86392;-41
2024/04/19 12:03:51;;;;;;;;;;;9.90;62.20;;;;;;5254565;26;87893;-42
2024/04/19 12:06:17;;;;;;;;;;;9.90;62.20;;;;;;5240045;26;87497;-42
2024/04/19 12:08:42;;;;;;;;;;;9.90;62.30;;;;;;5253354;26;86872;-42
2024/04/19 12:11:08;;;;;;;;;;;9.90;62.50;;;;;;5256218;26;85333;-42
2024/04/19 12:13:34;;;;;;;;;;;10.00;62.30;;;;;;5256498;26;85732;-41
2024/04/19 12:16:00;;;;;;;;;;;10.00;62.10;;;;;;5247103;26;85725;-41
2024/04/19 12:18:25;;;;;;;;;;;10.10;62.20;;;;;;5255480;26;85839;-41
2024/04/19 12:20:51;;;;;;;;;;;10.00;62.30;;;;;;5242962;26;85398;-42
2024/04/19 12:23:16;;;;;;;;;;;10.10;62.40;;;;;;5257154;26;87018;-42
2024/04/19 12:25:42;;;;;;;;;;;10.10;62.50;;;;;;5245766;26;85190;-42
2024/04/19 12:28:07;;;;;;;;;;;10.00;62.60;;;;;;5256817;26;86624;-41
2024/04/19 12:30:33;;;;;;;;;;;10.10;62.40;;;;;;5241674;26;85405;-41
2024/04/19 12:32:59;;;;;;;;;;;10.00;62.40;;;;;;5253179;26;85878;-42
2024/04/19 12:35:27;;;;;;;;;;;10.10;62.20;;;;;;5247147;26;87422;-42
2024/04/19 12:37:52;;;;;;;;;;;10.20;62.20;;;;;;5261458;26;85453;-42
2024/04/19 12:40:18;;;;;;;;;;;10.10;62.20;;;;;;5240930;26;86655;-42
2024/04/19 12:42:43;;;;;;;;;;;10.10;62.20;;;;;;5254177;26;85693;-42
2024/04/19 12:45:09;;;;;;;;;;;10.20;62.20;;;;;;5264349;26;85418;-42
2024/04/19 12:47:34;;;;;;;;;;;10.20;62.00;;;;;;5247855;26;86967;-42
2024/04/19 12:50:00;;;;;;;;;;;10.20;62.00;;;;;;5240329;26;85609;-41
2024/04/19 12:52:26;;;;;;;;;;;10.20;62.10;;;;;;5244834;26;86589;-42
2024/04/19 12:54:52;;;;;;;;;;;10.30;62.00;;;;;;5240276;26;86906;-42
2024/04/19 12:57:17;;;;;;;;;;;10.30;61.90;;;;;;5241642;26;85442;-42
2024/04/19 12:59:45;;;;;;;;;;;10.40;61.90;;;;;;5250918;26;87318;-42
2024/04/19 13:02:10;;;;;;;;;;;10.30;62.00;;;;;;5260692;26;87059;-42
2024/04/19 13:04:36;;;;;;;;;;;10.40;62.10;;;;;;5250100;26;87034;-42
2024/04/19 13:07:01;;;;;;;;;;;10.30;62.00;;;;;;5252646;26;86683;-42
2024/04/19 13:09:27;;;;;;;;;;;10.30;62.00;;;;;;5259857;26;84635;-42
2024/04/19 13:11:56;;;;;;;;;;;10.40;62.00;;;;;;5243056;26;85213;-42
2024/04/19 13:14:23;;;;;;;;;;;10.40;62.00;;;;;;5250494;26;86394;-42
2024/04/19 13:16:49;;;;;;;;;;;10.40;61.70;;;;;;5244228;26;86659;-42
2024/04/19 13:19:14;;;;;;;;;;;10.40;61.60;;;;;;5251994;26;86275;-42
2024/04/19 13:21:40;;;;;;;;;;;10.50;61.50;;;;;;5240065;26;87092;-42
2024/04/19 13:24:06;;;;;;;;;;;10.50;61.40;;;;;;5254835;26;85345;-42
2024/04/19 13:26:32;;;;;;;;;;;10.50;61.30;;;;;;5236457;26;85694;-42
2024/04/19 13:28:57;;;;;;;;;;;10.60;61.20;;;;;;5267736;26;85842;-42
2024/04/19 13:31:23;;;;;;;;;;;10.60;61.40;;;;;;5242495;26;86572;-42
2024/04/19 13:33:48;;;;;;;;;;;10.60;61.20;;;;;;5253402;26;86175;-42
2024/04/19 13:36:14;;;;;;;;;;;10.70;61.20;;;;;;5245651;26;85208;-42
2024/04/19 13:38:40;;;;;;;;;;;10.60;61.20;;;;;;5262585;26;85501;-43
2024/04/19 13:41:09;;;;;;;;;;;10.70;61.10;;;;;;5232833;26;88505;-42
2024/04/19 13:43:35;;;;;;;;;;;10.70;61.00;;;;;;5250509;26;85364;-41
2024/04/19 13:46:01;;;;;;;;;;;10.80;61.10;;;;;;5243067;26;85341;-42
2024/04/19 13:48:36;;;;;;;;;;;10.70;61.10;;;;;;5262376;26;87136;-42
2024/04/19 13:51:02;;;;;;;;;;;10.70;61.10;;;;;;5241093;26;85192;-42
2024/04/19 13:53:28;;;;;;;;;;;10.80;61.10;;;;;;5264145;26;86752;-41
2024/04/19 13:55:53;;;;;;;;;;;10.80;60.90;;;;;;5246299;26;85431;-42
2024/04/19 13:58:19;;;;;;;;;;;10.80;60.90;;;;;;5264878;26;85538;-42
2024/04/19 14:00:45;;;;;;;;;;;10.80;61.00;;;;;;5253538;26;87050;-42
2024/04/19 14:03:15;;;;;;;;;;;10.70;60.90;;;;;;5254845;26;85431;-42
2024/04/19 14:05:40;;;;;;;;;;;10.80;60.90;;;;;;5249021;26;86195;-42
2024/04/19 14:08:06;;;;;;;;;;;10.80;60.80;;;;;;5254157;26;87354;-42
2024/04/19 14:10:32;;;;;;;;;;;10.80;60.80;;;;;;5251637;26;85351;-41
2024/04/19 14:12:58;;;;;;;;;;;10.90;60.90;;;;;;5260791;26;85608;-42
2024/04/19 14:15:24;;;;;;;;;;;10.90;60.80;;;;;;5250869;26;85097;-42
2024/04/19 14:17:49;;;;;;;;;;;10.90;60.80;;;;;;5248028;26;86725;-42
2024/04/19 14:20:15;;;;;;;;;;;10.90;60.80;;;;;;5247166;26;87017;-42
2024/04/19 14:22:41;;;;;;;;;;;11.00;60.70;;;;;;5253636;26;84540;-42
2024/04/19 14:25:08;;;;;;;;;;;10.90;60.80;;;;;;5259090;26;85228;-42